Time;durP1;ratioP1;P1;durP2;ratioP2;P2;SDS_P1;SDS_P2;PMS_P1;PMS_P2;Temp;Humidity;BMP_temperature;BMP_pressure;BME280_temperature;BME280_humidity;BME280_pressure;Samples;Min_cycle;Max_cycle;Signal;HPM_P1;HPM_P2
2022/08/30 00:01:06;;;;;;;16.58;8.93;;;;;;;;;;5014943;28;20034;-66
2022/08/30 00:03:33;;;;;;;16.33;9.27;;;;;;;;;;5013554;28;20030;-66
2022/08/30 00:06:00;;;;;;;16.63;9.30;;;;;;;;;;5014878;28;20041;-66
2022/08/30 00:08:26;;;;;;;15.63;9.10;;;;;;;;;;5014622;28;20101;-66
2022/08/30 00:10:52;;;;;;;16.15;9.15;;;;;;;;;;5013844;28;20080;-66
2022/08/30 00:13:19;;;;;;;15.05;9.38;;;;;;;;;;5014467;28;20518;-66
2022/08/30 00:15:45;;;;;;;15.57;9.27;;;;;;;;;;5014434;28;20034;-66
2022/08/30 00:18:11;;;;;;;15.52;9.25;;;;;;;;;;5014102;28;20076;-66
2022/08/30 00:20:38;;;;;;;15.18;9.30;;;;;;;;;;5014113;28;20029;-67
2022/08/30 00:23:04;;;;;;;15.35;9.20;;;;;;;;;;5014135;28;20069;-67
2022/08/30 00:25:31;;;;;;;16.17;9.43;;;;;;;;;;5012819;28;20026;-66
2022/08/30 00:27:57;;;;;;;16.13;8.98;;;;;;;;;;5012581;28;20044;-68
2022/08/30 00:30:23;;;;;;;14.48;8.55;;;;;;;;;;5014193;28;20482;-67
2022/08/30 00:32:49;;;;;;;15.05;9.10;;;;;;;;;;5014077;28;20022;-69
2022/08/30 00:35:16;;;;;;;16.15;9.93;;;;;;;;;;5014010;28;20549;-68
2022/08/30 00:37:43;;;;;;;17.92;9.80;;;;;;;;;;5013889;28;20104;-67
2022/08/30 00:40:10;;;;;;;16.90;10.70;;;;;;;;;;5013402;28;20459;-67
2022/08/30 00:42:38;;;;;;;16.90;10.52;;;;;;;;;;5013995;28;20034;-67
2022/08/30 00:45:30;;;;;;;16.05;9.57;;;;;;;;;;5013635;28;20037;-67
2022/08/30 00:47:56;;;;;;;15.65;10.07;;;;;;;;;;5010898;28;20117;-67
2022/08/30 00:50:24;;;;;;;15.57;9.00;;;;;;;;;;5013721;28;20029;-67
2022/08/30 00:52:51;;;;;;;16.03;8.97;;;;;;;;;;5013949;28;20029;-67
2022/08/30 00:55:18;;;;;;;14.95;9.05;;;;;;;;;;5013874;28;20088;-68
2022/08/30 00:57:45;;;;;;;17.15;9.30;;;;;;;;;;5013089;28;20026;-68
2022/08/30 01:00:12;;;;;;;14.90;9.50;;;;;;;;;;5013772;28;20034;-67
2022/08/30 01:02:38;;;;;;;16.00;9.60;;;;;;;;;;5013650;28;20038;-67
2022/08/30 01:05:07;;;;;;;15.57;9.07;;;;;;;;;;5012203;28;20029;-67
2022/08/30 01:07:33;;;;;;;16.13;9.57;;;;;;;;;;5012017;28;20033;-67
2022/08/30 01:09:59;;;;;;;15.90;9.32;;;;;;;;;;5013400;28;20021;-67
2022/08/30 01:12:26;;;;;;;15.73;9.40;;;;;;;;;;5013233;28;20478;-67
2022/08/30 01:14:52;;;;;;;15.20;9.15;;;;;;;;;;5013441;28;20018;-69
2022/08/30 01:17:18;;;;;;;14.65;9.18;;;;;;;;;;5013074;28;20048;-66
2022/08/30 01:19:50;;;;;;;17.60;9.52;;;;;;;;;;5013167;28;20030;-68
2022/08/30 01:22:19;;;;;;;15.80;9.43;;;;;;;;;;5011661;28;20030;-67
2022/08/30 01:24:46;;;;;;;19.08;10.23;;;;;;;;;;5013027;28;20040;-67
2022/08/30 01:27:13;;;;;;;15.30;9.38;;;;;;;;;;5012804;28;20105;-67
2022/08/30 01:29:39;;;;;;;16.55;9.30;;;;;;;;;;5012081;28;20056;-67
2022/08/30 01:32:05;;;;;;;15.80;9.68;;;;;;;;;;5012963;28;20041;-67
2022/08/30 01:34:31;;;;;;;16.35;9.77;;;;;;;;;;5013289;28;20026;-66
2022/08/30 01:36:57;;;;;;;16.13;9.88;;;;;;;;;;5012919;28;20091;-66
2022/08/30 01:39:23;;;;;;;15.60;9.65;;;;;;;;;;5011415;28;20026;-67
2022/08/30 01:41:49;;;;;;;15.48;9.90;;;;;;;;;;5012931;28;20390;-67
2022/08/30 01:44:15;;;;;;;15.20;9.50;;;;;;;;;;5012942;28;20032;-67
2022/08/30 01:46:44;;;;;;;15.35;10.07;;;;;;;;;;5012577;28;20030;-67
2022/08/30 01:49:11;;;;;;;16.60;10.68;;;;;;;;;;5012649;28;20042;-66
2022/08/30 01:51:38;;;;;;;16.10;9.50;;;;;;;;;;5013486;28;20026;-67
2022/08/30 01:54:04;;;;;;;15.63;10.00;;;;;;;;;;5013071;28;20060;-68
2022/08/30 01:56:30;;;;;;;15.50;9.80;;;;;;;;;;5013847;28;20080;-67
2022/08/30 01:58:57;;;;;;;15.25;10.00;;;;;;;;;;5013030;28;20113;-67
2022/08/30 02:01:24;;;;;;;15.43;9.80;;;;;;;;;;5013307;28;20061;-67
2022/08/30 02:03:50;;;;;;;16.95;10.25;;;;;;;;;;5012826;28;20022;-67
2022/08/30 02:06:18;;;;;;;16.08;9.68;;;;;;;;;;5013345;28;20022;-67
2022/08/30 02:08:44;;;;;;;15.20;9.80;;;;;;;;;;5012518;28;20383;-66
2022/08/30 02:11:10;;;;;;;16.30;10.48;;;;;;;;;;5013423;28;20014;-68
2022/08/30 02:13:37;;;;;;;17.08;9.90;;;;;;;;;;5012595;28;20076;-67
2022/08/30 02:16:04;;;;;;;15.90;9.77;;;;;;;;;;5012839;28;20025;-66
2022/08/30 02:18:33;;;;;;;16.07;10.07;;;;;;;;;;5012590;28;20021;-65
2022/08/30 02:20:59;;;;;;;;;;;;;;;;;;5013056;28;20022;-66
2022/08/30 02:23:25;;;;;;;16.77;10.70;;;;;;;;;;5027644;28;19913;-67
2022/08/30 02:25:51;;;;;;;16.45;9.77;;;;;;;;;;5012509;28;20406;-67
2022/08/30 02:28:18;;;;;;;16.40;9.73;;;;;;;;;;5011773;28;20022;-67
2022/08/30 02:30:44;;;;;;;15.93;10.15;;;;;;;;;;5012491;28;20030;-67
2022/08/30 02:33:11;;;;;;;15.38;10.00;;;;;;;;;;5011867;28;20037;-66
2022/08/30 02:35:37;;;;;;;15.98;10.02;;;;;;;;;;5012243;28;20033;-67
2022/08/30 02:38:03;;;;;;;16.33;10.23;;;;;;;;;;5012075;28;20022;-66
2022/08/30 02:40:29;;;;;;;15.70;10.05;;;;;;;;;;5010897;28;20022;-66
2022/08/30 02:42:55;;;;;;;16.85;10.65;;;;;;;;;;5010789;28;20022;-66
2022/08/30 02:45:21;;;;;;;16.75;11.48;;;;;;;;;;5011925;28;20069;-66
2022/08/30 02:47:47;;;;;;;15.52;10.27;;;;;;;;;;5010634;28;20026;-66
2022/08/30 02:50:14;;;;;;;16.58;10.52;;;;;;;;;;5012085;28;20026;-66
2022/08/30 02:52:40;;;;;;;15.77;10.05;;;;;;;;;;5011676;28;20029;-66
2022/08/30 02:55:06;;;;;;;16.83;9.82;;;;;;;;;;5011903;28;20662;-66
2022/08/30 02:57:32;;;;;;;17.27;10.35;;;;;;;;;;5011443;28;20168;-66
2022/08/30 02:59:59;;;;;;;15.00;10.07;;;;;;;;;;5011969;28;20041;-67
2022/08/30 03:02:25;;;;;;;16.90;10.43;;;;;;;;;;5011799;28;20030;-66
2022/08/30 03:04:51;;;;;;;15.55;10.10;;;;;;;;;;5011730;28;20405;-66
2022/08/30 03:07:18;;;;;;;17.40;10.43;;;;;;;;;;5011606;28;20022;-67
2022/08/30 03:09:44;;;;;;;15.88;10.05;;;;;;;;;;5010557;28;20022;-66
2022/08/30 03:12:12;;;;;;;15.70;9.75;;;;;;;;;;5010480;28;20033;-67
2022/08/30 03:14:38;;;;;;;16.75;9.52;;;;;;;;;;5011651;28;20029;-66
2022/08/30 03:17:05;;;;;;;15.30;9.90;;;;;;;;;;5011740;28;20022;-66
2022/08/30 03:19:31;;;;;;;16.83;11.00;;;;;;;;;;5011480;28;20030;-67
2022/08/30 03:21:57;;;;;;;16.48;10.27;;;;;;;;;;5014622;28;20022;-66
2022/08/30 03:24:24;;;;;;;17.02;10.07;;;;;;;;;;5015354;28;20105;-66
2022/08/30 03:26:50;;;;;;;17.42;11.00;;;;;;;;;;5015308;28;20076;-67
2022/08/30 03:29:16;;;;;;;16.92;10.20;;;;;;;;;;5014965;28;20026;-66
2022/08/30 03:31:42;;;;;;;15.82;9.70;;;;;;;;;;5015173;28;20335;-66
2022/08/30 03:34:09;;;;;;;16.33;10.25;;;;;;;;;;5015144;28;20026;-66
2022/08/30 03:36:36;;;;;;;15.55;9.75;;;;;;;;;;5013826;28;20126;-66
2022/08/30 03:39:03;;;;;;;15.80;10.43;;;;;;;;;;5014886;28;20065;-66
2022/08/30 03:41:31;;;;;;;16.70;9.98;;;;;;;;;;5013470;28;20479;-66
2022/08/30 03:43:57;;;;;;;16.35;9.88;;;;;;;;;;5014802;28;20391;-66
2022/08/30 03:46:23;;;;;;;19.42;10.10;;;;;;;;;;5014893;28;20041;-66
2022/08/30 03:48:50;;;;;;;15.38;9.80;;;;;;;;;;5014624;28;20029;-66
2022/08/30 03:51:16;;;;;;;17.45;9.95;;;;;;;;;;5014937;28;20080;-66
2022/08/30 03:53:42;;;;;;;17.23;10.40;;;;;;;;;;5014585;28;20017;-66
2022/08/30 03:56:09;;;;;;;17.10;9.90;;;;;;;;;;5013320;28;20414;-66
2022/08/30 03:58:35;;;;;;;17.02;10.98;;;;;;;;;;5013127;28;20030;-66
2022/08/30 04:01:01;;;;;;;16.42;10.55;;;;;;;;;;5014561;28;20117;-66
2022/08/30 04:03:28;;;;;;;17.17;11.07;;;;;;;;;;5014501;28;20100;-67
2022/08/30 04:05:54;;;;;;;18.02;11.48;;;;;;;;;;5014323;28;20512;-66
2022/08/30 04:08:21;;;;;;;20.88;12.52;;;;;;;;;;5013915;28;20026;-66
2022/08/30 04:10:47;;;;;;;24.85;17.63;;;;;;;;;;5014290;28;20022;-67
2022/08/30 04:13:14;;;;;;;17.65;12.07;;;;;;;;;;5014471;28;20030;-66
2022/08/30 04:15:40;;;;;;;22.10;16.08;;;;;;;;;;5014540;28;20092;-66
2022/08/30 04:18:06;;;;;;;18.25;12.88;;;;;;;;;;5014134;28;20076;-66
2022/08/30 04:20:32;;;;;;;16.52;10.75;;;;;;;;;;5014556;28;20053;-66
2022/08/30 04:22:58;;;;;;;18.88;13.38;;;;;;;;;;5014101;28;20037;-66
2022/08/30 04:25:25;;;;;;;15.98;11.05;;;;;;;;;;5014147;28;20070;-67
2022/08/30 04:27:51;;;;;;;17.17;11.40;;;;;;;;;;5014126;28;20034;-66
2022/08/30 04:30:17;;;;;;;19.35;11.13;;;;;;;;;;5013877;28;20026;-66
2022/08/30 04:32:43;;;;;;;16.48;11.23;;;;;;;;;;5012243;28;20022;-66
2022/08/30 04:35:11;;;;;;;18.63;12.20;;;;;;;;;;5014754;28;20156;-66
2022/08/30 04:37:37;;;;;;;20.02;12.98;;;;;;;;;;5012411;28;20029;-65
2022/08/30 04:40:04;;;;;;;19.17;11.70;;;;;;;;;;5013944;28;20417;-65
2022/08/30 04:42:31;;;;;;;18.58;11.55;;;;;;;;;;5013808;28;20030;-67
2022/08/30 04:44:59;;;;;;;18.23;12.32;;;;;;;;;;5013710;28;20474;-66
2022/08/30 04:47:25;;;;;;;18.02;10.85;;;;;;;;;;5013768;28;20018;-67
2022/08/30 04:49:51;;;;;;;17.10;10.95;;;;;;;;;;5013463;28;20260;-67
2022/08/30 04:52:18;;;;;;;16.83;10.20;;;;;;;;;;5013936;28;20026;-67
2022/08/30 04:54:44;;;;;;;20.30;14.10;;;;;;;;;;5012390;28;20108;-66
2022/08/30 04:57:10;;;;;;;18.33;11.30;;;;;;;;;;5013081;28;20060;-67
2022/08/30 04:59:37;;;;;;;17.92;11.10;;;;;;;;;;5013206;28;20022;-67
2022/08/30 05:02:03;;;;;;;17.85;10.65;;;;;;;;;;5013464;28;20022;-66
2022/08/30 05:04:29;;;;;;;16.92;11.35;;;;;;;;;;5013751;28;20423;-66
2022/08/30 05:06:55;;;;;;;21.73;15.45;;;;;;;;;;5012072;28;20029;-67
2022/08/30 05:09:21;;;;;;;19.75;13.00;;;;;;;;;;5012726;28;20026;-68
2022/08/30 05:11:48;;;;;;;18.77;12.32;;;;;;;;;;5012972;28;20487;-66
2022/08/30 05:14:13;;;;;;;18.95;11.80;;;;;;;;;;5011973;28;20029;-66
2022/08/30 05:16:40;;;;;;;18.10;10.73;;;;;;;;;;5013209;28;20401;-66
2022/08/30 05:19:06;;;;;;;18.20;12.02;;;;;;;;;;5012749;28;20026;-67
2022/08/30 05:21:32;;;;;;;22.35;11.77;;;;;;;;;;5012821;28;20517;-67
2022/08/30 05:23:59;;;;;;;17.02;11.68;;;;;;;;;;5011674;28;20034;-67
2022/08/30 05:26:26;;;;;;;17.02;11.35;;;;;;;;;;5011694;28;20052;-66
2022/08/30 05:28:52;;;;;;;18.83;11.45;;;;;;;;;;5012351;28;20028;-67
2022/08/30 05:31:26;;;;;;;19.17;11.73;;;;;;;;;;5012784;28;20038;-68
2022/08/30 05:33:53;;;;;;;19.73;13.65;;;;;;;;;;5011267;28;20094;-67
2022/08/30 05:36:20;;;;;;;18.27;11.60;;;;;;;;;;5012369;28;20026;-67
2022/08/30 05:38:46;;;;;;;19.27;12.73;;;;;;;;;;5032355;23;20157;-53
2022/08/30 05:41:12;;;;;;;19.30;12.82;;;;;;;;;;5067163;28;20555;-60
2022/08/30 05:43:38;;;;;;;19.40;12.30;;;;;;;;;;5064229;28;20021;-55
2022/08/30 05:46:09;;;;;;;18.30;10.45;;;;;;;;;;5049666;28;20055;-58
2022/08/30 05:48:35;;;;;;;18.50;11.32;;;;;;;;;;5051019;28;20497;-58
2022/08/30 05:51:12;;;;;;;20.08;11.10;;;;;;;;;;5051620;28;20025;-58
2022/08/30 05:53:39;;;;;;;17.88;10.25;;;;;;;;;;5050462;28;20394;-59
2022/08/30 05:56:07;;;;;;;16.40;10.85;;;;;;;;;;5045204;28;20099;-59
2022/08/30 05:58:33;;;;;;;16.10;10.30;;;;;;;;;;5039358;28;20025;-58
2022/08/30 06:00:59;;;;;;;18.63;10.43;;;;;;;;;;5034780;28;20104;-60
2022/08/30 06:03:26;;;;;;;16.88;10.10;;;;;;;;;;5031459;28;20030;-56
2022/08/30 06:05:52;;;;;;;19.30;10.50;;;;;;;;;;5031335;28;20029;-60
2022/08/30 06:08:18;;;;;;;17.27;9.95;;;;;;;;;;5031104;28;20021;-57
2022/08/30 06:10:44;;;;;;;18.00;10.35;;;;;;;;;;5030367;28;20022;-59
2022/08/30 06:13:10;;;;;;;18.45;9.95;;;;;;;;;;5030084;28;20025;-59
2022/08/30 06:15:37;;;;;;;15.40;9.63;;;;;;;;;;5030947;28;20486;-59
2022/08/30 06:18:03;;;;;;;15.80;10.00;;;;;;;;;;5046601;28;20489;-59
2022/08/30 06:20:29;;;;;;;16.60;10.43;;;;;;;;;;5051122;28;20033;-57
2022/08/30 06:22:55;;;;;;;21.52;14.88;;;;;;;;;;5050555;28;20025;-60
2022/08/30 06:25:21;;;;;;;19.63;10.63;;;;;;;;;;5050506;28;20040;-60
2022/08/30 06:27:47;;;;;;;17.25;10.27;;;;;;;;;;5050529;28;20033;-59
2022/08/30 06:30:14;;;;;;;17.85;10.30;;;;;;;;;;5051136;28;20021;-60
2022/08/30 06:32:40;;;;;;;17.45;10.13;;;;;;;;;;5049862;28;20120;-58
2022/08/30 06:35:06;;;;;;;16.45;10.45;;;;;;;;;;5051056;28;20624;-59
2022/08/30 06:37:33;;;;;;;16.52;10.25;;;;;;;;;;5049408;28;20026;-57
2022/08/30 06:40:00;;;;;;;18.00;10.55;;;;;;;;;;5049366;28;20033;-58
2022/08/30 06:42:30;;;;;;;18.50;11.02;;;;;;;;;;5050575;28;20434;-60
2022/08/30 06:44:57;;;;;;;16.30;10.13;;;;;;;;;;5034845;28;20094;-60
2022/08/30 06:47:23;;;;;;;16.17;10.52;;;;;;;;;;5030796;28;20032;-57
2022/08/30 06:49:49;;;;;;;17.00;10.35;;;;;;;;;;5030965;28;20528;-58
2022/08/30 06:52:15;;;;;;;16.60;10.07;;;;;;;;;;5031038;28;20030;-61
2022/08/30 06:54:41;;;;;;;17.63;10.10;;;;;;;;;;5030932;28;20018;-57
2022/08/30 06:57:07;;;;;;;16.00;9.98;;;;;;;;;;5034703;28;20029;-58
2022/08/30 06:59:33;;;;;;;16.55;9.75;;;;;;;;;;5033486;28;20445;-60
2022/08/30 07:01:59;;;;;;;16.25;10.15;;;;;;;;;;5035006;28;20025;-60
2022/08/30 07:04:25;;;;;;;15.98;9.95;;;;;;;;;;5033633;28;20017;-56
2022/08/30 07:06:52;;;;;;;22.58;11.70;;;;;;;;;;5034493;28;20033;-58
2022/08/30 07:09:18;;;;;;;18.70;10.13;;;;;;;;;;5034462;28;20109;-52
2022/08/30 07:11:44;;;;;;;16.02;9.40;;;;;;;;;;5033136;28;20025;-58
2022/08/30 07:14:10;;;;;;;16.55;9.77;;;;;;;;;;5034747;28;20163;-58
2022/08/30 07:16:36;;;;;;;19.48;10.02;;;;;;;;;;5034406;28;20083;-55
2022/08/30 07:19:03;;;;;;;19.67;11.38;;;;;;;;;;5048491;28;20107;-56
2022/08/30 07:21:34;;;;;;;16.75;9.95;;;;;;;;;;5054448;28;20032;-59
2022/08/30 07:24:00;;;;;;;18.98;9.80;;;;;;;;;;5052980;28;20029;-58
2022/08/30 07:26:29;;;;;;;15.88;9.52;;;;;;;;;;5054143;28;20028;-54
2022/08/30 07:28:56;;;;;;;17.02;8.80;;;;;;;;;;5054045;28;20032;-58
2022/08/30 07:31:22;;;;;;;19.70;9.80;;;;;;;;;;5054199;28;20021;-57
2022/08/30 07:33:48;;;;;;;15.13;9.07;;;;;;;;;;5054068;28;20111;-57
2022/08/30 07:36:16;;;;;;;15.68;9.25;;;;;;;;;;5052544;28;20366;-55
2022/08/30 07:38:43;;;;;;;14.63;8.90;;;;;;;;;;5053645;28;20029;-56
2022/08/30 07:41:09;;;;;;;17.73;9.55;;;;;;;;;;5052729;28;20405;-63
2022/08/30 07:43:36;;;;;;;16.33;9.30;;;;;;;;;;5052039;28;20036;-61
2022/08/30 07:46:03;;;;;;;17.23;9.77;;;;;;;;;;5011228;28;20036;-61
2022/08/30 07:48:29;;;;;;;17.70;10.75;;;;;;;;;;5010016;28;20022;-61
2022/08/30 07:50:56;;;;;;;17.95;9.00;;;;;;;;;;5010487;28;20021;-62
2022/08/30 07:53:22;;;;;;;16.02;9.38;;;;;;;;;;5010996;28;20026;-62
2022/08/30 07:55:48;;;;;;;15.07;9.07;;;;;;;;;;5011571;28;20266;-61
2022/08/30 07:58:14;;;;;;;16.08;9.20;;;;;;;;;;5012621;28;20321;-61
2022/08/30 08:00:40;;;;;;;17.65;9.23;;;;;;;;;;5014141;28;20026;-62
2022/08/30 08:03:06;;;;;;;15.95;9.18;;;;;;;;;;5014087;28;20057;-62
2022/08/30 08:05:36;;;;;;;17.17;9.88;;;;;;;;;;5012463;28;20026;-62
2022/08/30 08:08:02;;;;;;;16.85;8.90;;;;;;;;;;5012477;28;20364;-62
2022/08/30 08:10:28;;;;;;;16.00;9.77;;;;;;;;;;5013854;28;20097;-62
2022/08/30 08:12:54;;;;;;;18.05;9.50;;;;;;;;;;5012865;28;20030;-61
2022/08/30 08:15:20;;;;;;;17.75;9.65;;;;;;;;;;5014375;28;20175;-61
2022/08/30 08:17:46;;;;;;;15.95;8.75;;;;;;;;;;5013458;28;20060;-61
2022/08/30 08:20:12;;;;;;;14.60;9.27;;;;;;;;;;5013708;28;20108;-61
2022/08/30 08:22:38;;;;;;;16.85;9.48;;;;;;;;;;5013524;28;20100;-61
2022/08/30 08:25:04;;;;;;;18.00;9.48;;;;;;;;;;5013543;28;20030;-61
2022/08/30 08:27:30;;;;;;;15.73;9.10;;;;;;;;;;5013181;28;20025;-62
2022/08/30 08:29:56;;;;;;;15.82;9.70;;;;;;;;;;5013392;28;20419;-62
2022/08/30 08:32:22;;;;;;;18.88;11.05;;;;;;;;;;5013296;28;20022;-62
2022/08/30 08:34:48;;;;;;;15.95;9.57;;;;;;;;;;5012125;28;20116;-63
2022/08/30 08:37:14;;;;;;;16.33;9.68;;;;;;;;;;5013135;28;20125;-63
2022/08/30 08:39:40;;;;;;;16.50;10.20;;;;;;;;;;5013216;28;20040;-63
2022/08/30 08:42:07;;;;;;;15.88;10.27;;;;;;;;;;5013425;28;20026;-63
2022/08/30 08:44:36;;;;;;;15.80;10.40;;;;;;;;;;5020886;28;20057;-63
2022/08/30 08:47:08;;;;;;;15.07;10.38;;;;;;;;;;5032892;28;20370;-63
2022/08/30 08:49:35;;;;;;;16.95;10.32;;;;;;;;;;5032465;28;20117;-63
2022/08/30 08:54:48;;;;;;;17.65;10.32;;;;;;;;;;5032709;28;20036;-61
2022/08/30 08:57:14;;;;;;;;;;;;;;;;;;5032701;28;20088;-63
2022/08/30 08:59:42;;;;;;;15.13;10.65;;;;;;;;;;5030975;28;19905;-63
2022/08/30 09:02:23;;;;;;;16.65;10.30;;;;;;;;;;5032235;28;20351;-63
2022/08/30 09:04:50;;;;;;;18.55;10.55;;;;;;;;;;5032241;28;20021;-63
2022/08/30 09:07:24;;;;;;;15.18;10.30;;;;;;;;;;5032191;28;20110;-63
2022/08/30 09:09:50;;;;;;;16.33;10.40;;;;;;;;;;5032594;28;20025;-63
2022/08/30 09:12:16;;;;;;;17.08;11.27;;;;;;;;;;5032588;28;20041;-63
2022/08/30 09:14:44;;;;;;;15.55;10.50;;;;;;;;;;5032289;28;20025;-63
2022/08/30 09:17:11;;;;;;;15.27;10.80;;;;;;;;;;5032023;28;20030;-58
2022/08/30 09:19:42;;;;;;;15.43;10.75;;;;;;;;;;5031826;28;20041;-63
2022/08/30 09:22:27;;;;;;;15.00;10.63;;;;;;;;;;5030470;28;20025;-62
2022/08/30 09:25:01;;;;;;;21.58;12.07;;;;;;;;;;5032136;28;20025;-61
2022/08/30 09:27:32;;;;;;;15.85;11.05;;;;;;;;;;5032031;28;20021;-61
2022/08/30 09:30:08;;;;;;;15.63;10.90;;;;;;;;;;5031682;28;20044;-63
2022/08/30 09:32:38;;;;;;;16.13;11.00;;;;;;;;;;5032043;28;20028;-63
2022/08/30 09:35:07;;;;;;;15.75;11.07;;;;;;;;;;5030941;28;20028;-65
2022/08/30 09:37:35;;;;;;;17.85;11.00;;;;;;;;;;5031813;28;20028;-63
2022/08/30 09:40:01;;;;;;;16.50;11.15;;;;;;;;;;5031631;28;20506;-63
2022/08/30 09:42:29;;;;;;;15.82;10.70;;;;;;;;;;5031955;28;20037;-63
2022/08/30 09:45:09;;;;;;;15.63;11.20;;;;;;;;;;5031773;28;20029;-63
2022/08/30 09:47:36;;;;;;;17.30;10.73;;;;;;;;;;5030058;28;20025;-64
2022/08/30 09:50:06;;;;;;;16.85;10.95;;;;;;;;;;5031619;28;20032;-63
2022/08/30 09:52:35;;;;;;;15.75;10.80;;;;;;;;;;5031822;28;20021;-60
2022/08/30 09:55:19;;;;;;;16.63;11.27;;;;;;;;;;5032278;28;20025;-63
2022/08/30 09:57:54;;;;;;;14.70;10.70;;;;;;;;;;5031373;28;20108;-63
2022/08/30 10:00:23;;;;;;;17.63;11.15;;;;;;;;;;5030197;28;20050;-64
2022/08/30 10:02:49;;;;;;;19.33;11.77;;;;;;;;;;5031302;28;20108;-63
2022/08/30 10:05:15;;;;;;;16.60;11.55;;;;;;;;;;5031012;28;20410;-61
2022/08/30 10:07:53;;;;;;;16.42;10.68;;;;;;;;;;5031041;28;20076;-65
2022/08/30 10:10:33;;;;;;;15.18;10.90;;;;;;;;;;5030694;28;20381;-66
2022/08/30 10:12:59;;;;;;;16.02;11.30;;;;;;;;;;5031622;28;20035;-66
2022/08/30 10:15:34;;;;;;;20.15;10.90;;;;;;;;;;5030033;28;20044;-65
2022/08/30 10:18:15;;;;;;;16.30;11.38;;;;;;;;;;5031149;28;20032;-66
2022/08/30 10:20:41;;;;;;;15.70;10.90;;;;;;;;;;4678439;28;10000041;-66
2022/08/30 10:23:08;;;;;;;20.15;11.02;;;;;;;;;;5027789;28;20039;-67
2022/08/30 10:25:39;;;;;;;17.25;12.40;;;;;;;;;;5027663;28;20053;-67
2022/08/30 10:28:17;;;;;;;15.95;11.27;;;;;;;;;;5025003;28;20072;-66
2022/08/30 10:30:55;;;;;;;17.27;11.52;;;;;;;;;;5007343;28;20100;-66
2022/08/30 10:33:27;;;;;;;14.90;10.98;;;;;;;;;;5006511;28;20040;-66
2022/08/30 10:35:56;;;;;;;14.88;11.02;;;;;;;;;;5007790;28;20487;-66
2022/08/30 10:38:22;;;;;;;;;;;;;;;;;;5023660;28;20289;-66
2022/08/30 10:43:49;;;;;;;15.63;10.88;;;;;;;;;;5027294;28;20555;-66
2022/08/30 10:46:21;;;;;;;15.02;11.23;;;;;;;;;;5007635;28;20042;-66
2022/08/30 10:48:48;;;;;;;17.27;11.07;;;;;;;;;;5007840;28;20026;-65
2022/08/30 10:51:16;;;;;;;15.50;11.27;;;;;;;;;;5008006;28;20391;-66
2022/08/30 10:53:54;;;;;;;14.85;11.07;;;;;;;;;;5009351;28;20029;-66
2022/08/30 10:56:20;;;;;;;;;;;;;;;;;;5028190;28;20034;-66
2022/08/30 10:58:47;;;;;;;17.52;11.70;;;;;;;;;;5025916;28;19909;-65
2022/08/30 11:01:22;;;;;;;16.17;11.50;;;;;;;;;;5028129;28;20069;-67
2022/08/30 11:04:02;;;;;;;17.73;11.10;;;;;;;;;;5026605;28;20417;-66
2022/08/30 11:06:34;;;;;;;18.55;11.32;;;;;;;;;;5029085;28;20059;-66
2022/08/30 11:09:19;;;;;;;16.85;11.77;;;;;;;;;;5030042;28;20033;-67
2022/08/30 11:11:51;;;;;;;16.85;11.90;;;;;;;;;;5030539;28;20026;-66
2022/08/30 11:14:18;;;;;;;18.67;11.32;;;;;;;;;;5030079;28;20021;-66
2022/08/30 11:16:49;;;;;;;18.13;12.47;;;;;;;;;;4679117;28;9999891;-66
2022/08/30 11:19:15;;;;;;;17.05;12.20;;;;;;;;;;5026327;28;20021;-68
2022/08/30 11:21:43;;;;;;;19.52;14.10;;;;;;;;;;5027715;28;20029;-67
2022/08/30 11:24:11;;;;;;;16.37;12.63;;;;;;;;;;5027459;28;20022;-68
2022/08/30 11:26:49;;;;;;;17.30;12.38;;;;;;;;;;5026079;28;20037;-67
2022/08/30 11:29:34;;;;;;;19.33;12.90;;;;;;;;;;5027032;28;20022;-67
2022/08/30 11:32:19;;;;;;;16.02;12.30;;;;;;;;;;5027692;28;20025;-67
2022/08/30 11:34:48;;;;;;;16.55;12.68;;;;;;;;;;5027688;28;20028;-67
2022/08/30 11:37:14;;;;;;;17.40;12.88;;;;;;;;;;5027093;28;20029;-67
2022/08/30 11:39:46;;;;;;;20.52;12.80;;;;;;;;;;5036365;22;20164;-63
2022/08/30 11:42:12;;;;;;;16.48;12.48;;;;;;;;;;5008664;28;20037;-62
2022/08/30 11:44:38;;;;;;;19.08;13.27;;;;;;;;;;5012138;28;20033;-61
2022/08/30 11:47:40;;;;;;;15.75;12.57;;;;;;;;;;5011853;28;20083;-62
2022/08/30 11:50:12;;;;;;;17.42;13.00;;;;;;;;;;4931200;29;20034;-62
2022/08/30 11:52:39;;;;;;;16.23;12.10;;;;;;;;;;5000559;28;20268;-62
2022/08/30 11:55:31;;;;;;;18.58;15.93;;;;;;;;;;5015038;28;20025;-62
2022/08/30 11:57:57;;;;;;;16.30;13.38;;;;;;;;;;5011474;28;20134;-61
2022/08/30 12:00:29;;;;;;;16.33;13.27;;;;;;;;;;5014616;28;20093;-61
2022/08/30 12:03:02;;;;;;;16.58;13.10;;;;;;;;;;5014485;28;20064;-60
2022/08/30 12:05:37;;;;;;;17.15;12.50;;;;;;;;;;5013536;28;20034;-60
2022/08/30 12:08:09;;;;;;;17.73;13.00;;;;;;;;;;5014077;28;20025;-62
2022/08/30 12:10:40;;;;;;;16.20;13.48;;;;;;;;;;5013168;28;20041;-62
2022/08/30 12:13:06;;;;;;;16.60;13.20;;;;;;;;;;5013614;28;20390;-62
2022/08/30 12:15:51;;;;;;;15.95;13.25;;;;;;;;;;5014883;28;20038;-64
2022/08/30 12:18:29;;;;;;;17.10;13.00;;;;;;;;;;5013898;28;20068;-64
2022/08/30 12:20:55;;;;;;;;;;;;;;;;;;5016073;28;20033;-65
2022/08/30 12:23:33;;;;;;;16.52;13.10;;;;;;;;;;5013035;28;19906;-65
2022/08/30 12:26:17;;;;;;;15.57;12.70;;;;;;;;;;5014040;28;20034;-64
2022/08/30 12:28:45;;;;;;;15.80;12.98;;;;;;;;;;5013947;28;20038;-65
2022/08/30 12:31:19;;;;;;;;;;;32.40;35.80;;;;;;5014688;28;20036;-65
2022/08/30 12:33:53;;;;;;;16.85;13.30;;;35.50;39.00;;;;;;5013023;28;19929;-65
2022/08/30 12:36:34;;;;;;;15.90;13.15;;;;;;;;;;5014182;28;20037;-65
2022/08/30 12:39:09;;;;;;;16.77;13.32;;;;;;;;;;5013401;28;20022;-65
2022/08/30 12:41:35;;;;;;;16.88;14.50;;;;;;;;;;5013581;28;20038;-66
2022/08/30 12:44:01;;;;;;;16.50;13.20;;;;;;;;;;5013675;28;20033;-68
2022/08/30 12:46:29;;;;;;;19.02;14.75;;;;;;;;;;5014022;28;20026;-65
2022/08/30 12:48:55;;;;;;;15.52;12.93;;;;;;;;;;5013720;28;20025;-65
2022/08/30 12:51:39;;;;;;;16.13;13.20;;;36.50;36.90;;;;;;5013835;28;20040;-65
2022/08/30 12:54:13;;;;;;;15.55;13.02;;;34.30;35.20;;;;;;5012194;28;20501;-64
2022/08/30 12:57:06;;;;;;;17.70;12.90;;;34.00;37.20;;;;;;5014185;28;20449;-66
2022/08/30 12:59:50;;;;;;;16.25;13.52;;;35.10;34.80;;;;;;5011592;28;20041;-65
2022/08/30 13:02:17;;;;;;;17.25;12.70;;;35.10;35.00;;;;;;5013469;28;20022;-65
2022/08/30 13:04:46;;;;;;;18.42;13.13;;;35.40;33.70;;;;;;5013982;28;20032;-65
2022/08/30 13:07:30;;;;;;;17.02;13.05;;;34.80;34.90;;;;;;5013954;28;20089;-65
2022/08/30 13:10:25;;;;;;;17.13;12.57;;;34.00;35.50;;;;;;5014892;28;20022;-75
2022/08/30 13:13:04;;;;;;;16.60;13.40;;;34.00;35.70;;;;;;5005019;28;20044;-63
2022/08/30 13:15:40;;;;;;;15.77;13.13;;;34.00;36.30;;;;;;5014152;28;20144;-63
2022/08/30 13:18:31;;;;;;;16.65;13.60;;;34.80;34.90;;;;;;5014007;28;20026;-65
2022/08/30 13:21:18;;;;;;;16.70;13.55;;;33.90;34.10;;;;;;5013413;28;20043;-65
2022/08/30 13:23:43;;;;;;;17.63;13.93;;;33.50;34.10;;;;;;5013756;28;20467;-65
2022/08/30 13:26:09;;;;;;;16.58;12.80;;;34.00;34.50;;;;;;5013654;28;20104;-63
2022/08/30 13:28:47;;;;;;;21.35;12.80;;;33.70;33.90;;;;;;5013351;28;20029;-65
2022/08/30 13:31:12;;;;;;;18.63;13.07;;;33.30;34.40;;;;;;5012161;28;20019;-62
2022/08/30 13:33:38;;;;;;;16.63;12.75;;;34.60;35.60;;;;;;5012683;28;20036;-64
2022/08/30 13:36:04;;;;;;;15.52;12.27;;;35.60;33.30;;;;;;5013293;28;20032;-65
2022/08/30 13:38:29;;;;;;;15.65;12.50;;;35.70;32.70;;;;;;5012233;28;20099;-66
2022/08/30 13:40:55;;;;;;;17.65;13.32;;;35.90;32.80;;;;;;5013020;28;20555;-65
2022/08/30 13:43:21;;;;;;;19.52;12.82;;;35.80;32.40;;;;;;5012783;28;20109;-66
2022/08/30 13:45:47;;;;;;;16.02;12.23;;;35.80;31.30;;;;;;5012562;28;20497;-65
2022/08/30 13:48:14;;;;;;;18.05;11.77;;;35.10;31.60;;;;;;5012566;28;20405;-67
2022/08/30 13:50:41;;;;;;;17.05;12.20;;;34.60;31.90;;;;;;5012687;28;20101;-65
2022/08/30 13:53:08;;;;;;;17.55;12.65;;;34.90;33.90;;;;;;5012955;28;20029;-67
2022/08/30 13:55:35;;;;;;;16.55;12.85;;;35.20;32.50;;;;;;5013181;28;20037;-66
2022/08/30 13:58:01;;;;;;;17.30;13.18;;;35.00;32.60;;;;;;5012219;28;20109;-66
2022/08/30 14:00:26;;;;;;;15.63;12.98;;;34.60;33.10;;;;;;5012592;28;20033;-66
2022/08/30 14:02:54;;;;;;;16.23;13.07;;;34.20;33.90;;;;;;5013013;28;20029;-66
2022/08/30 14:05:23;;;;;;;;;;;35.00;32.90;;;;;;5012695;28;20445;-65
2022/08/30 14:07:49;;;;;;;15.73;12.90;;;35.50;31.80;;;;;;5012858;28;19912;-67
2022/08/30 14:10:16;;;;;;;16.90;13.20;;;;;;;;;;5012622;28;20022;-66
2022/08/30 14:12:42;;;;;;;17.75;13.02;;;;;;;;;;5011980;28;20029;-67
2022/08/30 14:15:08;;;;;;;16.75;13.13;;;;;;;;;;5012372;28;20044;-65
2022/08/30 14:17:34;;;;;;;16.67;12.65;;;;;;;;;;5012260;28;20044;-66
2022/08/30 14:20:01;;;;;;;17.33;12.65;;;;;;;;;;5012235;28;20435;-65
2022/08/30 14:22:27;;;;;;;17.25;12.48;;;;;;;;;;5012242;28;20033;-65
2022/08/30 14:24:53;;;;;;;18.48;13.45;;;;;;;;;;5011574;28;20033;-66